Time;durP1;ratioP1;P1;durP2;ratioP2;P2;SDS_P1;SDS_P2;PMS_P1;PMS_P2;Temp;Humidity;BMP_temperature;BMP_pressure;BME280_temperature;BME280_humidity;BME280_pressure;Samples;Min_cycle;Max_cycle;Signal;HPM_P1;HPM_P2
2021/08/06 00:01:32;;;;;;;17.63;11.60;;;24.10;73.80;;;;;;4994623;28;20026;-76
2021/08/06 00:03:59;;;;;;;18.17;12.63;;;24.10;73.90;;;;;;4977197;28;20034;-76
2021/08/06 00:06:27;;;;;;;17.13;12.77;;;24.00;74.10;;;;;;4994587;28;20073;-75
2021/08/06 00:08:56;;;;;;;16.15;12.65;;;24.00;74.20;;;;;;4994686;28;20034;-75
2021/08/06 00:11:31;;;;;;;17.92;13.32;;;23.90;74.40;;;;;;4994500;28;20040;-75
2021/08/06 00:13:58;;;;;;;19.08;12.80;;;23.90;74.70;;;;;;4994565;28;20084;-75
2021/08/06 00:16:24;;;;;;;17.75;12.73;;;23.90;74.80;;;;;;4994352;28;20022;-75
2021/08/06 00:18:51;;;;;;;18.35;13.05;;;23.80;74.90;;;;;;4994153;28;20126;-75
2021/08/06 00:21:17;;;;;;;20.42;13.20;;;23.80;75.20;;;;;;4994245;28;20057;-75
2021/08/06 00:23:47;;;;;;;15.07;13.07;;;23.80;75.20;;;;;;4994124;28;20049;-75
2021/08/06 00:26:13;;;;;;;20.42;13.32;;;23.80;75.40;;;;;;4994344;28;20033;-75
2021/08/06 00:28:40;;;;;;;17.85;13.15;;;23.80;75.50;;;;;;4976615;28;20421;-75
2021/08/06 00:31:06;;;;;;;20.55;13.43;;;23.80;75.60;;;;;;4994031;28;20105;-76
2021/08/06 00:33:32;;;;;;;17.63;13.27;;;23.80;75.70;;;;;;4993882;28;20133;-76
2021/08/06 00:35:57;;;;;;;18.52;13.35;;;23.80;75.80;;;;;;4976624;28;20109;-76
2021/08/06 00:38:23;;;;;;;23.00;14.50;;;23.80;75.70;;;;;;4993830;28;20030;-75
2021/08/06 00:40:49;;;;;;;18.85;14.35;;;23.80;75.70;;;;;;4994211;28;20025;-76
2021/08/06 00:43:15;;;;;;;22.52;14.52;;;23.80;75.70;;;;;;4994009;28;20015;-75
2021/08/06 00:45:41;;;;;;;30.80;15.95;;;23.90;75.80;;;;;;4994083;28;20030;-75
2021/08/06 00:48:07;;;;;;;21.45;15.65;;;23.90;75.70;;;;;;4993989;28;20037;-74
2021/08/06 00:50:33;;;;;;;22.08;15.63;;;23.90;75.80;;;;;;4993789;28;20030;-74
2021/08/06 00:52:59;;;;;;;27.50;16.05;;;23.90;75.80;;;;;;4993821;28;20031;-75
2021/08/06 00:55:25;;;;;;;25.65;16.75;;;23.90;75.80;;;;;;4993574;28;20054;-74
2021/08/06 00:57:51;;;;;;;23.27;16.60;;;23.80;75.90;;;;;;4993714;28;20064;-75
2021/08/06 01:00:17;;;;;;;20.25;15.95;;;23.80;76.00;;;;;;4993907;28;20416;-75
2021/08/06 01:02:50;;;;;;;21.15;16.70;;;23.70;76.10;;;;;;4993542;28;20034;-75
2021/08/06 01:05:18;;;;;;;22.75;16.80;;;23.70;76.40;;;;;;4993477;28;20046;-74
2021/08/06 01:08:06;;;;;;;21.38;16.63;;;23.60;76.60;;;;;;4993741;28;20034;-75
2021/08/06 01:10:46;;;;;;;25.75;17.30;;;23.60;76.90;;;;;;4993552;28;20142;-75
2021/08/06 01:13:16;;;;;;;25.08;18.10;;;23.50;77.10;;;;;;4993287;28;20029;-75
2021/08/06 01:15:47;;;;;;;24.40;17.83;;;23.50;77.30;;;;;;4993261;28;20054;-74
2021/08/06 01:18:16;;;;;;;26.60;16.88;;;23.40;77.50;;;;;;4993242;28;20042;-74
2021/08/06 01:20:49;;;;;;;28.35;17.95;;;23.40;77.70;;;;;;4993277;28;20077;-75
2021/08/06 01:23:33;;;;;;;22.15;18.73;;;23.30;77.90;;;;;;4992927;28;20029;-75
2021/08/06 01:26:09;;;;;;;22.23;17.40;;;23.30;78.20;;;;;;4993173;28;20034;-75
2021/08/06 01:28:37;;;;;;;28.65;19.85;;;23.20;78.30;;;;;;4975828;28;20109;-76
2021/08/06 01:31:04;;;;;;;25.33;18.42;;;23.20;78.50;;;;;;4975801;28;20034;-76
2021/08/06 01:33:30;;;;;;;27.38;18.38;;;23.20;78.70;;;;;;4992927;28;20381;-76
2021/08/06 01:35:56;;;;;;;24.95;18.27;;;23.20;78.70;;;;;;4993062;28;20037;-76
2021/08/06 01:38:22;;;;;;;22.33;17.58;;;23.20;78.80;;;;;;4992942;28;20031;-76
2021/08/06 01:41:06;;;;;;;25.50;18.13;;;23.20;78.90;;;;;;4992902;28;20036;-75
2021/08/06 01:43:46;;;;;;;23.05;18.33;;;23.20;79.20;;;;;;4993022;28;20023;-75
2021/08/06 01:46:42;;;;;;;25.63;18.58;;;23.20;79.40;;;;;;4992923;28;20027;-75
2021/08/06 01:49:11;;;;;;;27.02;17.73;;;23.20;79.60;;;;;;4971517;28;20030;-75
2021/08/06 01:51:41;;;;;;;22.05;16.67;;;23.30;79.80;;;;;;4992721;28;20033;-75
2021/08/06 01:54:10;;;;;;;25.10;17.92;;;23.30;79.80;;;;;;4992296;28;20018;-75
2021/08/06 01:56:37;;;;;;;23.20;16.50;;;23.40;79.80;;;;;;4992679;28;20029;-75
2021/08/06 01:59:02;;;;;;;21.25;16.45;;;23.40;79.70;;;;;;4975138;28;20413;-75
2021/08/06 02:01:28;;;;;;;23.25;16.98;;;23.40;79.70;;;;;;4992475;28;20026;-74
2021/08/06 02:03:55;;;;;;;23.10;17.77;;;23.40;79.60;;;;;;4992563;28;20089;-74
2021/08/06 02:06:21;;;;;;;23.05;16.95;;;23.40;79.70;;;;;;4992519;28;20022;-74
2021/08/06 02:08:48;;;;;;;22.27;17.33;;;23.40;79.80;;;;;;4992631;28;20465;-74
2021/08/06 02:11:17;;;;;;;22.02;16.55;;;23.40;80.10;;;;;;4975110;28;20049;-74
2021/08/06 02:13:43;;;;;;;24.20;16.88;;;23.40;80.30;;;;;;4992425;28;20057;-74
2021/08/06 02:16:10;;;;;;;26.50;17.00;;;23.30;80.20;;;;;;4992416;28;20058;-74
2021/08/06 02:18:37;;;;;;;19.77;16.58;;;23.30;80.50;;;;;;4992194;28;20038;-75
2021/08/06 02:21:13;;;;;;;20.58;16.30;;;23.30;80.70;;;;;;4992312;28;20061;-75
2021/08/06 02:23:44;;;;;;;24.90;16.70;;;23.30;80.90;;;;;;4992363;28;20026;-74
2021/08/06 02:26:11;;;;;;;21.85;16.92;;;23.20;81.10;;;;;;4992295;28;20381;-74
2021/08/06 02:28:40;;;;;;;22.65;17.05;;;23.20;81.40;;;;;;4992282;28;20076;-74
2021/08/06 02:31:06;;;;;;;22.70;16.55;;;23.20;81.60;;;;;;4991936;28;20026;-74
2021/08/06 02:33:32;;;;;;;24.60;17.98;;;23.20;81.70;;;;;;4991841;28;20050;-74
2021/08/06 02:35:58;;;;;;;26.02;17.85;;;23.20;81.80;;;;;;4992185;28;20362;-74
2021/08/06 02:38:24;;;;;;;22.02;17.45;;;23.10;81.80;;;;;;4992256;28;20037;-74
2021/08/06 02:40:51;;;;;;;27.70;17.65;;;23.10;82.00;;;;;;4992073;28;20033;-74
2021/08/06 02:43:17;;;;;;;23.98;17.13;;;23.10;82.30;;;;;;4992493;28;20022;-74
2021/08/06 02:45:47;;;;;;;24.70;16.85;;;23.20;82.40;;;;;;4992435;28;20836;-74
2021/08/06 02:48:13;;;;;;;24.25;17.48;;;23.20;82.50;;;;;;4992203;28;20030;-74
2021/08/06 02:50:38;;;;;;;26.63;16.85;;;23.20;82.40;;;;;;4992385;28;20041;-74
2021/08/06 02:53:04;;;;;;;20.63;17.25;;;23.20;82.40;;;;;;4992232;28;20845;-74
2021/08/06 02:55:30;;;;;;;22.52;17.10;;;23.20;82.40;;;;;;4992165;28;20031;-74
2021/08/06 02:57:55;;;;;;;22.30;16.80;;;23.30;82.40;;;;;;4991995;28;20034;-75
2021/08/06 03:00:21;;;;;;;19.85;17.05;;;23.30;82.80;;;;;;4991723;28;20109;-77
2021/08/06 03:02:47;;;;;;;20.98;16.05;;;23.40;82.10;;;;;;4992146;28;20049;-75
2021/08/06 03:05:12;;;;;;;20.05;16.60;;;23.50;81.90;;;;;;4993321;28;20458;-75
2021/08/06 03:07:38;;;;;;;21.92;16.65;;;23.60;81.60;;;;;;4978070;28;20026;-75
2021/08/06 03:10:05;;;;;;;27.00;17.10;;;23.80;81.40;;;;;;4995623;28;20073;-75
2021/08/06 03:12:32;;;;;;;21.20;16.80;;;24.00;80.90;;;;;;4995531;28;20026;-75
2021/08/06 03:14:57;;;;;;;25.02;16.95;;;24.30;80.30;;;;;;4995307;28;20026;-75
2021/08/06 03:17:23;;;;;;;20.33;15.82;;;24.60;79.50;;;;;;4995521;28;20108;-76
2021/08/06 03:19:50;;;;;;;21.65;16.08;;;24.90;78.60;;;;;;4995320;28;20022;-76
2021/08/06 03:22:16;;;;;;;19.80;16.25;;;25.10;77.60;;;;;;4995243;28;20019;-76
2021/08/06 03:24:42;;;;;;;17.90;15.23;;;25.40;77.10;;;;;;4995156;28;20025;-76
2021/08/06 03:27:07;;;;;;;23.05;16.52;;;25.70;76.30;;;;;;4995073;28;20491;-75
2021/08/06 03:29:33;;;;;;;23.63;15.75;;;26.00;75.60;;;;;;4995138;28;20535;-75
2021/08/06 03:31:59;;;;;;;18.70;14.77;;;26.30;74.70;;;;;;4994831;28;20050;-76
2021/08/06 03:34:25;;;;;;;19.17;15.27;;;26.50;73.80;;;;;;4995060;28;20061;-75
2021/08/06 03:36:50;;;;;;;19.80;15.25;;;26.70;73.20;;;;;;4995213;28;20038;-76
2021/08/06 03:39:16;;;;;;;22.08;15.02;;;26.90;72.60;;;;;;4994872;28;20138;-76
2021/08/06 03:41:42;;;;;;;18.85;15.15;;;27.10;72.10;;;;;;4994880;28;20023;-76
2021/08/06 03:44:07;;;;;;;24.08;15.95;;;27.30;71.50;;;;;;4995039;28;20022;-75
2021/08/06 03:46:33;;;;;;;22.48;15.30;;;27.30;71.00;;;;;;4994739;28;20491;-75
2021/08/06 03:48:59;;;;;;;20.33;15.35;;;27.10;70.90;;;;;;4994453;28;20131;-77
2021/08/06 03:51:24;;;;;;;22.02;15.07;;;26.80;71.10;;;;;;4994537;28;20116;-77
2021/08/06 03:53:50;;;;;;;22.70;15.43;;;26.50;71.60;;;;;;4994776;28;20037;-77
2021/08/06 03:56:16;;;;;;;20.08;15.45;;;26.40;72.20;;;;;;4994757;28;20033;-77
2021/08/06 03:58:42;;;;;;;20.42;15.10;;;26.10;72.60;;;;;;4977028;28;20026;-76
2021/08/06 04:01:07;;;;;;;17.85;13.93;;;25.90;73.10;;;;;;4994646;28;20496;-76
2021/08/06 04:03:33;;;;;;;19.15;14.27;;;25.70;73.40;;;;;;4976807;28;20037;-77
2021/08/06 04:05:59;;;;;;;21.95;15.40;;;25.60;73.70;;;;;;4994329;28;20034;-76
2021/08/06 04:08:25;;;;;;;18.35;13.82;;;25.40;74.10;;;;;;4994367;28;20469;-77
2021/08/06 04:10:50;;;;;;;18.50;14.93;;;25.20;74.50;;;;;;4994327;28;20035;-76
2021/08/06 04:13:16;;;;;;;20.73;14.90;;;25.00;74.90;;;;;;4994000;28;20027;-76
2021/08/06 04:15:42;;;;;;;19.75;15.30;;;24.70;75.70;;;;;;4993411;28;20381;-74
2021/08/06 04:18:08;;;;;;;19.02;14.23;;;24.50;76.40;;;;;;4993845;28;20050;-75
2021/08/06 04:20:33;;;;;;;24.02;16.70;;;24.30;77.30;;;;;;4993919;28;20046;-76
2021/08/06 04:22:59;;;;;;;30.50;19.83;;;24.20;78.10;;;;;;4993753;28;20026;-76
2021/08/06 04:25:25;;;;;;;33.80;20.27;;;24.00;78.70;;;;;;4993608;28;20093;-75
2021/08/06 04:27:51;;;;;;;28.60;18.95;;;23.80;79.40;;;;;;4993497;28;20105;-76
2021/08/06 04:30:16;;;;;;;32.28;19.63;;;23.70;80.20;;;;;;4993456;28;20057;-75
2021/08/06 04:32:43;;;;;;;41.13;23.25;;;23.60;80.70;;;;;;4993412;28;20608;-75
2021/08/06 04:35:09;;;;;;;37.25;22.73;;;23.50;81.20;;;;;;4976031;28;20089;-75
2021/08/06 04:37:44;;;;;;;34.75;23.20;;;23.50;81.90;;;;;;4993364;28;20027;-75
2021/08/06 04:40:10;;;;;;;29.77;22.63;;;23.40;82.60;;;;;;4993535;28;20022;-75
2021/08/06 04:42:36;;;;;;;34.70;25.70;;;23.30;83.50;;;;;;4993651;28;20053;-76
2021/08/06 04:45:02;;;;;;;31.55;21.77;;;23.30;84.40;;;;;;4993539;28;20057;-76
2021/08/06 04:47:28;;;;;;;40.58;23.88;;;23.10;85.20;;;;;;4992733;28;20023;-75
2021/08/06 04:49:53;;;;;;;30.77;20.77;;;23.10;86.00;;;;;;4992455;28;20022;-76
2021/08/06 04:52:19;;;;;;;30.15;18.17;;;23.10;86.60;;;;;;4993357;28;20034;-75
2021/08/06 04:54:45;;;;;;;24.35;19.35;;;23.00;86.70;;;;;;4993347;28;20473;-76
2021/08/06 04:57:10;;;;;;;29.20;19.73;;;23.10;86.80;;;;;;4993085;28;20469;-76
2021/08/06 04:59:36;;;;;;;34.60;20.00;;;23.10;87.10;;;;;;4993078;28;20072;-76
2021/08/06 05:02:02;;;;;;;32.35;21.10;;;23.10;87.30;;;;;;4992680;28;20027;-76
2021/08/06 05:04:27;;;;;;;26.73;21.08;;;23.10;87.50;;;;;;4992971;28;20413;-76
2021/08/06 05:06:53;;;;;;;35.10;20.83;;;23.10;87.70;;;;;;4992770;28;20018;-76
2021/08/06 05:09:19;;;;;;;27.65;20.02;;;23.10;87.70;;;;;;4993316;28;20358;-77
2021/08/06 05:11:44;;;;;;;28.73;19.13;;;23.10;87.80;;;;;;4992853;28;20149;-79
2021/08/06 05:14:10;;;;;;;31.17;18.25;;;23.10;87.80;;;;;;4992457;28;20022;-83
2021/08/06 05:16:36;;;;;;;29.33;21.10;;;23.20;87.90;;;;;;4993546;28;20233;-84
2021/08/06 05:19:02;;;;;;;29.90;21.10;;;23.20;87.80;;;;;;4994096;28;20808;-84
2021/08/06 05:21:27;;;;;;;29.10;20.77;;;23.30;88.00;;;;;;4993424;28;20058;-81
2021/08/06 05:23:53;;;;;;;26.10;20.17;;;23.30;88.20;;;;;;4975771;28;20033;-84
2021/08/06 05:26:19;;;;;;;24.60;19.10;;;23.40;88.00;;;;;;4993829;28;20383;-83
2021/08/06 05:28:44;;;;;;;28.15;18.20;;;23.50;87.50;;;;;;4992827;28;20022;-85
2021/08/06 05:31:10;;;;;;;26.73;17.45;;;23.60;86.80;;;;;;4994156;28;20030;-85
2021/08/06 05:33:36;;;;;;;23.98;17.05;;;23.80;85.90;;;;;;4975749;28;20477;-83
2021/08/06 05:36:02;;;;;;;32.10;16.83;;;24.00;85.40;;;;;;4993117;28;20026;-84
2021/08/06 05:38:28;;;;;;;21.70;14.93;;;24.30;84.40;;;;;;4993333;28;20350;-84
2021/08/06 05:40:53;;;;;;;23.75;15.13;;;24.70;83.30;;;;;;4975742;28;20118;-84
2021/08/06 05:43:19;;;;;;;19.60;14.65;;;25.20;81.60;;;;;;4992768;28;20118;-84
2021/08/06 05:45:45;;;;;;;23.20;14.80;;;25.50;80.10;;;;;;4974679;28;20026;-86
2021/08/06 05:48:13;;;;;;;22.40;13.85;;;25.80;78.70;;;;;;4992871;28;20365;-84
2021/08/06 05:50:40;;;;;;;21.58;13.45;;;26.00;77.60;;;;;;4975622;28;20030;-85
2021/08/06 05:53:06;;;;;;;22.63;13.90;;;26.10;76.80;;;;;;4975668;28;20026;-84
2021/08/06 05:55:32;;;;;;;34.75;15.85;;;26.30;76.10;;;;;;4992251;28;20494;-83
2021/08/06 05:57:58;;;;;;;37.17;18.65;;;26.40;75.90;;;;;;4992633;28;20407;-83
2021/08/06 06:00:24;;;;;;;28.25;15.65;;;26.60;74.30;;;;;;4993224;28;20034;-81
2021/08/06 06:02:49;;;;;;;25.63;16.23;;;26.70;73.80;;;;;;4992540;28;20023;-83
2021/08/06 06:05:15;;;;;;;24.90;16.67;;;26.80;73.20;;;;;;4992310;28;20054;-83
2021/08/06 06:07:47;;;;;;;33.40;16.55;;;26.90;73.10;;;;;;4992686;28;20022;-86
2021/08/06 06:10:17;;;;;;;36.72;17.67;;;27.00;72.40;;;;;;4993606;28;20516;-85
2021/08/06 06:12:42;;;;;;;32.22;18.15;;;27.20;72.20;;;;;;4993849;28;20548;-84
2021/08/06 06:15:09;;;;;;;38.58;19.25;;;27.30;71.60;;;;;;4995970;28;20061;-84
2021/08/06 06:17:35;;;;;;;41.13;17.15;;;27.40;71.20;;;;;;4994341;28;20134;-85
2021/08/06 06:20:01;;;;;;;31.42;16.25;;;27.50;71.00;;;;;;4976535;28;20035;-85
2021/08/06 06:22:26;;;;;;;26.02;14.52;;;27.50;70.90;;;;;;4993812;28;20026;-86
2021/08/06 06:24:52;;;;;;;18.73;12.77;;;27.50;70.80;;;;;;4993945;28;20054;-86
2021/08/06 06:27:18;;;;;;;21.60;13.10;;;27.60;70.60;;;;;;4976878;28;20030;-86
2021/08/06 06:29:44;;;;;;;13.98;12.05;;;27.50;70.60;;;;;;4993880;28;20038;-85
2021/08/06 06:32:10;;;;;;;16.45;12.23;;;27.50;70.60;;;;;;4993770;28;20042;-86
2021/08/06 06:34:35;;;;;;;12.65;10.32;;;27.50;70.60;;;;;;4992981;28;20029;-81
2021/08/06 06:37:01;;;;;;;18.90;11.05;;;27.50;70.50;;;;;;4992458;28;20384;-81
2021/08/06 06:39:27;;;;;;;14.27;10.45;;;27.40;70.50;;;;;;4977044;28;20034;-81
2021/08/06 06:41:53;;;;;;;14.10;10.40;;;27.40;70.40;;;;;;4996158;28;20053;-81
2021/08/06 06:44:18;;;;;;;16.20;10.70;;;27.40;70.50;;;;;;4978596;28;20357;-80
2021/08/06 06:46:44;;;;;;;13.48;10.85;;;27.40;70.60;;;;;;4995650;28;20029;-81
2021/08/06 06:49:10;;;;;;;14.30;10.93;;;27.40;70.70;;;;;;4995707;28;20084;-79
2021/08/06 06:51:35;;;;;;;27.83;12.13;;;27.40;70.80;;;;;;4978153;28;20485;-79
2021/08/06 06:54:01;;;;;;;16.00;11.93;;;27.40;71.00;;;;;;4995867;28;20033;-78
2021/08/06 06:56:27;;;;;;;19.88;12.88;;;27.60;71.30;;;;;;4995308;28;20030;-76
2021/08/06 06:58:53;;;;;;;16.80;12.98;;;27.90;71.60;;;;;;4994883;28;20030;-78
2021/08/06 07:01:19;;;;;;;18.98;12.52;;;28.40;71.20;;;;;;4995139;28;20041;-78
2021/08/06 07:03:44;;;;;;;13.73;11.15;;;28.70;69.80;;;;;;4995343;28;20375;-76
2021/08/06 07:06:10;;;;;;;18.95;11.27;;;28.80;68.80;;;;;;4995084;28;20045;-76
2021/08/06 07:08:38;;;;;;;12.25;10.02;;;28.60;68.20;;;;;;4995267;28;20100;-76
2021/08/06 07:11:05;;;;;;;16.17;10.13;;;28.40;68.30;;;;;;4995212;28;20023;-76
2021/08/06 07:13:31;;;;;;;12.07;9.80;;;28.20;68.60;;;;;;4977989;28;20041;-85
2021/08/06 07:15:57;;;;;;;25.40;9.48;;;28.00;68.70;;;;;;4995846;28;20245;-78
2021/08/06 07:18:22;;;;;;;12.43;8.25;;;27.90;69.10;;;;;;4995186;28;20038;-77
2021/08/06 07:20:48;;;;;;;14.50;9.07;;;27.90;68.90;;;;;;4994665;28;20026;-78
2021/08/06 07:23:15;;;;;;;14.13;8.45;;;27.90;68.70;;;;;;4994949;28;20025;-74
2021/08/06 07:25:40;;;;;;;11.07;8.20;;;27.90;68.50;;;;;;4994700;28;20066;-74
2021/08/06 07:28:06;;;;;;;10.75;8.40;;;27.80;68.40;;;;;;4994938;28;20058;-81
2021/08/06 07:30:32;;;;;;;16.70;8.60;;;27.70;68.40;;;;;;4995051;28;20081;-82
2021/08/06 07:32:58;;;;;;;11.45;8.27;;;27.60;68.80;;;;;;4995304;28;20109;-82
2021/08/06 07:35:25;;;;;;;11.38;7.85;;;27.40;68.90;;;;;;4995427;28;20030;-76
2021/08/06 07:37:51;;;;;;;11.43;7.82;;;27.10;69.30;;;;;;4994655;28;20026;-78
2021/08/06 07:40:17;;;;;;;9.95;8.20;;;26.80;70.40;;;;;;4995382;28;20019;-78
2021/08/06 07:42:43;;;;;;;9.77;7.43;;;26.50;71.30;;;;;;4995192;28;20026;-80
2021/08/06 07:45:10;;;;;;;12.00;7.82;;;26.30;72.00;;;;;;4995638;28;20030;-78
2021/08/06 07:47:36;;;;;;;9.40;7.57;;;26.10;72.50;;;;;;4998187;28;20034;-77
2021/08/06 07:50:02;;;;;;;12.65;8.77;;;25.80;73.00;;;;;;4995649;28;20035;-79
2021/08/06 07:52:28;;;;;;;13.82;8.60;;;25.50;74.30;;;;;;4993631;28;20509;-78
2021/08/06 07:54:53;;;;;;;15.18;8.52;;;25.30;75.30;;;;;;4994687;28;20030;-79
2021/08/06 07:57:19;;;;;;;15.68;9.80;;;25.30;75.90;;;;;;4994783;28;20534;-77
2021/08/06 07:59:45;;;;;;;14.73;8.77;;;25.20;76.20;;;;;;4994176;28;20108;-79
2021/08/06 08:02:11;;;;;;;15.98;10.20;;;25.20;76.40;;;;;;4995518;28;20157;-80
2021/08/06 08:04:36;;;;;;;17.15;9.52;;;25.20;76.10;;;;;;4994943;28;20027;-80
2021/08/06 08:07:03;;;;;;;20.42;10.90;;;25.20;75.80;;;;;;4994614;28;20033;-81
2021/08/06 08:09:29;;;;;;;16.25;10.48;;;25.20;75.50;;;;;;4995050;28;20038;-78
2021/08/06 08:11:55;;;;;;;18.48;10.43;;;25.30;75.00;;;;;;4996853;28;20140;-79
2021/08/06 08:14:20;;;;;;;13.73;8.82;;;25.30;74.70;;;;;;4994118;28;20146;-77
2021/08/06 08:16:46;;;;;;;16.30;8.68;;;25.40;74.80;;;;;;4976613;28;20077;-79
2021/08/06 08:19:12;;;;;;;11.48;8.55;;;25.40;74.60;;;;;;4994052;28;20380;-80
2021/08/06 08:21:38;;;;;;;11.73;8.73;;;25.40;74.70;;;;;;4994523;28;20098;-83
2021/08/06 08:24:04;;;;;;;11.80;8.00;;;25.40;74.70;;;;;;4995305;28;20022;-81
2021/08/06 08:26:29;;;;;;;12.13;8.27;;;25.50;74.60;;;;;;4995152;28;20477;-82
2021/08/06 08:28:55;;;;;;;17.63;8.75;;;25.70;74.40;;;;;;4995696;28;20034;-83
2021/08/06 08:31:21;;;;;;;10.20;7.72;;;25.80;74.10;;;;;;4995812;28;20476;-82
2021/08/06 08:33:46;;;;;;;10.45;7.60;;;26.10;73.40;;;;;;4995508;28;20116;-82
2021/08/06 08:36:14;;;;;;;10.65;7.53;;;26.30;72.70;;;;;;4995320;28;20061;-84
2021/08/06 08:38:39;;;;;;;15.73;6.82;;;26.60;72.20;;;;;;4994448;28;20030;-79
2021/08/06 08:41:05;;;;;;;10.60;6.93;;;27.10;71.20;;;;;;4994199;28;20026;-79
2021/08/06 08:43:31;;;;;;;9.05;6.30;;;27.50;70.40;;;;;;4994090;28;20014;-80
2021/08/06 08:45:57;;;;;;;14.60;6.18;;;28.10;69.50;;;;;;4993840;28;20097;-80
2021/08/06 08:48:23;;;;;;;11.90;5.57;;;28.80;67.90;;;;;;4994175;28;20029;-78
2021/08/06 08:50:55;;;;;;;11.15;5.85;;;29.40;65.80;;;;;;4993290;28;20538;-78
2021/08/06 08:53:21;;;;;;;7.13;5.15;;;29.70;64.50;;;;;;4975859;28;20092;-79
2021/08/06 08:55:47;;;;;;;7.18;4.82;;;30.10;63.60;;;;;;5002695;28;20030;-87
2021/08/06 08:58:13;;;;;;;10.50;4.78;;;30.60;61.90;;;;;;5006507;28;20037;-86
2021/08/06 09:00:42;;;;;;;7.20;5.10;;;30.90;60.80;;;;;;4998194;28;20118;-81
2021/08/06 09:03:08;;;;;;;8.32;5.00;;;31.20;59.60;;;;;;4994710;28;20053;-87
2021/08/06 09:05:33;;;;;;;7.70;4.63;;;31.40;59.10;;;;;;4995737;28;20077;-82
2021/08/06 09:08:17;;;;;;;6.85;4.70;;;31.80;58.80;;;;;;4995088;28;20124;-90
2021/08/06 09:10:42;;;;;;;7.93;4.70;;;32.10;57.30;;;;;;4994594;28;20409;-84
2021/08/06 09:13:08;;;;;;;9.05;4.60;;;32.30;56.90;;;;;;4994259;28;20113;-84
2021/08/06 09:15:52;;;;;;;5.57;4.55;;;32.30;56.00;;;;;;4993717;28;20468;-85
2021/08/06 09:18:27;;;;;;;9.23;4.68;;;32.10;54.20;;;;;;4994522;28;20034;-86
2021/08/06 09:21:21;;;;;;;12.18;4.80;;;31.80;54.30;;;;;;4977757;28;20042;-84
2021/08/06 09:23:55;;;;;;;7.63;4.70;;;31.60;54.30;;;;;;4991821;28;20076;-84
2021/08/06 09:26:28;;;;;;;6.18;4.40;;;31.50;53.10;;;;;;4994390;28;20456;-84
2021/08/06 09:29:11;;;;;;;7.43;5.03;;;31.30;54.00;;;;;;5009815;28;20381;-84
2021/08/06 09:31:58;;;;;;;16.15;5.15;;;31.30;53.40;;;;;;4993377;28;20026;-83
2021/08/06 09:34:34;;;;;;;8.07;4.43;;;31.10;54.00;;;;;;4978745;28;20066;-82
2021/08/06 09:37:11;;;;;;;5.95;4.13;;;31.10;53.20;;;;;;4993133;28;20102;-83
2021/08/06 09:39:50;;;;;;;5.95;4.10;;;30.90;52.90;;;;;;4991990;28;20018;-82
2021/08/06 09:42:19;;;;;;;14.55;4.45;;;31.00;53.00;;;;;;4990918;28;20054;-85
2021/08/06 09:44:55;;;;;;;6.95;4.30;;;31.10;53.10;;;;;;4993385;28;20498;-82
2021/08/06 09:47:22;;;;;;;9.63;3.95;;;31.20;52.40;;;;;;4992692;28;20101;-83
2021/08/06 09:49:51;;;;;;;14.98;4.28;;;31.40;51.70;;;;;;4992649;28;20089;-88
2021/08/06 09:52:17;;;;;;;8.63;4.25;;;31.40;51.10;;;;;;4992066;28;20433;-81
2021/08/06 09:54:51;;;;;;;5.68;3.90;;;31.50;50.60;;;;;;4991407;28;20498;-84
2021/08/06 09:57:17;;;;;;;8.60;4.00;;;31.40;50.40;;;;;;4991450;28;20121;-76
2021/08/06 09:59:43;;;;;;;10.38;4.57;;;31.40;50.20;;;;;;4992902;28;20423;-82
2021/08/06 10:02:13;;;;;;;7.95;4.10;;;31.30;50.30;;;;;;4993245;28;20445;-86
2021/08/06 10:04:40;;;;;;;10.73;5.05;;;31.40;50.40;;;;;;4976412;28;20034;-80
2021/08/06 10:07:07;;;;;;;11.27;5.43;;;31.60;50.50;;;;;;4992613;28;20018;-81
2021/08/06 10:09:34;;;;;;;20.23;9.10;;;31.70;50.20;;;;;;4993145;28;20023;-84
2021/08/06 10:11:59;;;;;;;16.13;7.85;;;31.70;49.60;;;;;;4992805;28;20019;-82
2021/08/06 10:14:27;;;;;;;15.02;7.03;;;31.80;49.70;;;;;;4995634;28;20022;-88
2021/08/06 10:16:54;;;;;;;17.35;7.22;;;31.80;49.70;;;;;;4981218;28;20027;-80
2021/08/06 10:19:20;;;;;;;12.40;7.07;;;31.90;49.40;;;;;;4997254;28;20048;-82
2021/08/06 10:21:46;;;;;;;11.48;5.95;;;31.70;49.90;;;;;;4979130;28;20089;-82
2021/08/06 10:24:16;;;;;;;8.68;5.03;;;31.60;49.90;;;;;;4997294;28;20085;-75
2021/08/06 10:26:46;;;;;;;12.65;5.50;;;31.60;50.00;;;;;;4995773;28;20030;-74
2021/08/06 10:29:13;;;;;;;17.33;7.38;;;31.70;49.70;;;;;;4995774;28;20030;-73
2021/08/06 10:31:39;;;;;;;24.40;7.35;;;31.80;50.30;;;;;;4995704;28;20388;-73
2021/08/06 10:34:12;;;;;;;33.25;6.25;;;31.90;49.80;;;;;;4995670;28;20035;-74
2021/08/06 10:36:46;;;;;;;30.20;6.13;;;31.90;49.60;;;;;;4995630;28;20037;-74
2021/08/06 10:39:30;;;;;;;28.80;6.72;;;31.90;50.10;;;;;;4995579;28;20516;-74
2021/08/06 10:41:57;;;;;;;28.80;7.00;;;31.90;50.30;;;;;;4995263;28;20027;-74
2021/08/06 10:44:23;;;;;;;37.70;8.15;;;32.00;50.00;;;;;;4995310;28;20027;-72
2021/08/06 10:46:58;;;;;;;27.95;8.45;;;32.10;50.10;;;;;;4995236;28;20034;-73
2021/08/06 10:49:25;;;;;;;42.30;8.27;;;32.20;49.90;;;;;;4995173;28;20026;-74
2021/08/06 10:52:10;;;;;;;21.63;7.85;;;32.40;50.00;;;;;;4995240;28;20365;-73
2021/08/06 10:54:36;;;;;;;40.28;10.32;;;32.60;49.90;;;;;;4995178;28;20505;-72
2021/08/06 10:57:18;;;;;;;47.90;10.60;;;32.90;49.50;;;;;;4995214;28;20030;-72
2021/08/06 10:59:44;;;;;;;18.83;6.10;;;33.00;48.90;;;;;;4995358;28;20034;-73
2021/08/06 11:02:38;;;;;;;11.98;5.05;;;32.90;48.80;;;;;;4995493;28;20038;-76
2021/08/06 11:05:37;;;;;;;18.33;4.72;;;32.80;49.10;;;;;;4995436;28;20023;-74
2021/08/06 11:08:41;;;;;;;24.73;7.85;;;32.70;49.40;;;;;;4952738;28;20113;-73
2021/08/06 11:11:07;;;;;;;17.98;6.05;;;32.60;49.20;;;;;;4995219;28;20038;-74
2021/08/06 11:13:33;;;;;;;12.32;4.85;;;32.60;49.20;;;;;;4994941;28;20022;-72
2021/08/06 11:16:09;;;;;;;9.18;4.65;;;32.50;49.30;;;;;;4994735;28;20106;-72
2021/08/06 11:18:41;;;;;;;10.95;4.30;;;32.40;49.60;;;;;;4994915;28;20026;-72
2021/08/06 11:21:07;;;;;;;13.48;5.25;;;32.20;49.80;;;;;;4994696;28;20022;-73
2021/08/06 11:23:34;;;;;;;5.93;4.38;;;32.00;50.20;;;;;;4994507;28;20025;-74
2021/08/06 11:26:11;;;;;;;6.97;4.72;;;32.00;50.50;;;;;;4993613;28;20026;-73
2021/08/06 11:28:38;;;;;;;7.07;5.30;;;32.00;50.10;;;;;;4976634;28;20031;-74
2021/08/06 11:31:17;;;;;;;12.18;5.65;;;32.00;50.00;;;;;;4994155;28;20101;-72
2021/08/06 11:33:44;;;;;;;17.00;6.47;;;32.00;49.30;;;;;;4994201;28;20497;-74
2021/08/06 11:36:18;;;;;;;22.10;7.28;;;32.00;49.50;;;;;;4994405;28;20030;-72
2021/08/06 11:38:44;;;;;;;26.85;8.10;;;32.10;49.20;;;;;;4994437;28;20018;-70
2021/08/06 11:41:10;;;;;;;23.67;8.07;;;32.00;49.40;;;;;;4994453;28;20037;-71
2021/08/06 11:43:37;;;;;;;13.32;6.75;;;31.90;49.60;;;;;;4994582;28;20026;-73
2021/08/06 11:46:14;;;;;;;9.93;5.60;;;31.70;49.50;;;;;;4994547;28;20089;-71
2021/08/06 11:48:53;;;;;;;8.30;5.82;;;31.50;50.20;;;;;;4994455;28;20444;-71
2021/08/06 11:51:19;;;;;;;10.10;5.60;;;31.40;49.90;;;;;;4994238;28;20101;-72
2021/08/06 11:53:46;;;;;;;12.05;6.07;;;31.20;50.20;;;;;;4993923;28;20037;-71
2021/08/06 11:56:18;;;;;;;7.43;5.97;;;31.00;50.70;;;;;;4993854;28;20037;-71
2021/08/06 11:58:45;;;;;;;11.50;6.32;;;30.90;51.30;;;;;;4993891;28;20041;-70
2021/08/06 12:01:22;;;;;;;9.43;6.93;;;30.80;52.00;;;;;;4993864;28;20761;-70
2021/08/06 12:03:49;;;;;;;9.55;5.90;;;30.70;53.00;;;;;;4994128;28;20040;-70
2021/08/06 12:06:16;;;;;;;9.35;6.50;;;30.60;54.00;;;;;;4993995;28;20081;-71
2021/08/06 12:08:43;;;;;;;11.90;6.72;;;30.50;55.00;;;;;;4993829;28;20026;-73
2021/08/06 12:11:11;;;;;;;8.10;6.50;;;30.40;55.90;;;;;;4976281;28;20122;-70
2021/08/06 12:13:40;;;;;;;10.65;6.50;;;30.10;56.40;;;;;;4993767;28;20031;-70
2021/08/06 12:16:07;;;;;;;12.30;7.53;;;29.90;57.20;;;;;;4993691;28;20022;-70
2021/08/06 12:18:34;;;;;;;17.77;8.30;;;29.60;59.30;;;;;;4993553;28;20461;-71
2021/08/06 12:21:15;;;;;;;15.82;8.02;;;29.40;61.80;;;;;;4993688;28;20050;-70
2021/08/06 12:23:53;;;;;;;17.92;7.95;;;29.00;64.30;;;;;;4993757;28;20532;-70
2021/08/06 12:26:31;;;;;;;16.75;8.65;;;28.60;66.70;;;;;;4993802;28;20035;-70
2021/08/06 12:29:09;;;;;;;17.02;9.90;;;28.20;67.90;;;;;;4993506;28;20037;-70
2021/08/06 12:31:47;;;;;;;11.65;8.55;;;27.80;69.40;;;;;;4993440;28;20413;-70
2021/08/06 12:34:13;;;;;;;27.73;12.38;;;27.40;70.60;;;;;;4993746;28;20472;-69
2021/08/06 12:36:52;;;;;;;30.83;13.70;;;27.00;72.40;;;;;;4993385;28;20042;-71
2021/08/06 12:39:17;;;;;;;30.33;14.43;;;26.60;75.00;;;;;;4993495;28;20476;-70